createdAt,value
2022-08-04T00:00:00.000Z,0.0
2022-08-04T00:02:00.000Z,0.0
2022-08-04T00:04:00.000Z,0.0
2022-08-04T00:06:00.000Z,0.0
2022-08-04T00:08:00.000Z,0.0
2022-08-04T00:10:00.000Z,0.0
2022-08-04T00:12:00.000Z,0.0
2022-08-04T00:14:00.000Z,0.0
2022-08-04T00:16:00.000Z,0.0
2022-08-04T00:18:00.000Z,0.0
2022-08-04T00:20:00.000Z,0.0
2022-08-04T00:22:00.000Z,0.0
2022-08-04T00:24:00.000Z,0.0
2022-08-04T00:26:00.000Z,0.0
2022-08-04T00:28:00.000Z,0.0
2022-08-04T00:30:00.000Z,0.0
2022-08-04T00:32:00.000Z,0.0
2022-08-04T00:34:00.000Z,0.0
2022-08-04T00:36:00.000Z,0.0
2022-08-04T00:38:00.000Z,0.0
2022-08-04T00:40:00.000Z,0.0
2022-08-04T00:42:00.000Z,0.0
2022-08-04T00:44:00.000Z,0.0
2022-08-04T00:46:00.000Z,0.0
2022-08-04T00:48:00.000Z,0.0
2022-08-04T00:50:00.000Z,0.0
2022-08-04T00:52:00.000Z,0.0
2022-08-04T00:54:00.000Z,0.0
2022-08-04T00:56:00.000Z,0.0
2022-08-04T00:58:00.000Z,0.0
2022-08-04T01:00:00.000Z,0.0
2022-08-04T01:02:00.000Z,0.0
2022-08-04T01:04:00.000Z,0.0
2022-08-04T01:06:00.000Z,0.0
2022-08-04T01:08:00.000Z,0.0
2022-08-04T01:10:00.000Z,0.0
2022-08-04T01:12:00.000Z,0.0
2022-08-04T01:14:00.000Z,0.0
2022-08-04T01:16:00.000Z,0.0
2022-08-04T01:18:00.000Z,0.0
2022-08-04T01:20:00.000Z,0.0
2022-08-04T01:22:00.000Z,0.0
2022-08-04T01:24:00.000Z,0.0
2022-08-04T01:26:00.000Z,0.0
2022-08-04T01:28:00.000Z,0.0
2022-08-04T01:30:00.000Z,0.0
2022-08-04T01:32:00.000Z,0.0
2022-08-04T01:34:00.000Z,0.0
2022-08-04T01:36:00.000Z,0.0
2022-08-04T01:38:00.000Z,0.0
2022-08-04T01:40:00.000Z,0.0
2022-08-04T01:42:00.000Z,0.0
2022-08-04T01:44:00.000Z,0.0
2022-08-04T01:46:00.000Z,0.0
2022-08-04T01:48:00.000Z,0.0
2022-08-04T01:50:00.000Z,0.0
2022-08-04T01:52:00.000Z,0.0
2022-08-04T01:54:00.000Z,0.0
2022-08-04T01:56:00.000Z,0.0
2022-08-04T01:58:00.000Z,0.0
2022-08-04T02:00:00.000Z,0.0
2022-08-04T02:02:00.000Z,0.0
2022-08-04T02:04:00.000Z,0.0
2022-08-04T02:06:00.000Z,0.0
2022-08-04T02:08:00.000Z,0.0
2022-08-04T02:10:00.000Z,0.0
2022-08-04T02:12:00.000Z,0.0
2022-08-04T02:14:00.000Z,0.0
2022-08-04T02:16:00.000Z,0.0
2022-08-04T02:18:00.000Z,0.0
2022-08-04T02:20:00.000Z,0.0
2022-08-04T02:22:00.000Z,0.0
2022-08-04T02:24:00.000Z,0.0
2022-08-04T02:26:00.000Z,0.0
2022-08-04T02:28:00.000Z,0.0
2022-08-04T02:30:00.000Z,0.0
2022-08-04T02:32:00.000Z,0.0
2022-08-04T02:34:00.000Z,0.0
2022-08-04T02:36:00.000Z,0.0
2022-08-04T02:38:00.000Z,0.0
2022-08-04T02:40:00.000Z,0.0
2022-08-04T02:42:00.000Z,0.0
2022-08-04T02:44:00.000Z,0.0
2022-08-04T02:46:00.000Z,0.0
2022-08-04T02:48:00.000Z,0.0
2022-08-04T02:50:00.000Z,0.0
2022-08-04T02:52:00.000Z,0.0
2022-08-04T02:54:00.000Z,0.0
2022-08-04T02:56:00.000Z,0.0
2022-08-04T02:58:00.000Z,0.0
2022-08-04T03:00:00.000Z,0.0
2022-08-04T03:02:00.000Z,0.0
2022-08-04T03:04:00.000Z,0.0
2022-08-04T03:06:00.000Z,0.0
2022-08-04T03:08:00.000Z,0.0
2022-08-04T03:10:00.000Z,0.0
2022-08-04T03:12:00.000Z,0.0
2022-08-04T03:14:00.000Z,0.0
2022-08-04T03:16:00.000Z,0.0
2022-08-04T03:18:00.000Z,0.0
2022-08-04T03:20:00.000Z,0.31
2022-08-04T03:22:00.000Z,0.55
2022-08-04T03:24:00.000Z,0.71
2022-08-04T03:26:00.000Z,1.02
2022-08-04T03:28:00.000Z,1.18
2022-08-04T03:30:00.000Z,1.5
2022-08-04T03:32:00.000Z,1.65
2022-08-04T03:34:00.000Z,1.97
2022-08-04T03:36:00.000Z,2.21
2022-08-04T03:38:00.000Z,2.52
2022-08-04T03:40:00.000Z,2.92
2022-08-04T03:42:00.000Z,3.16
2022-08-04T03:44:00.000Z,3.63
2022-08-04T03:46:00.000Z,4.34
2022-08-04T03:48:00.000Z,5.05
2022-08-04T03:50:00.000Z,5.84
2022-08-04T03:52:00.000Z,6.55
2022-08-04T03:54:00.000Z,7.34
2022-08-04T03:56:00.000Z,8.13
2022-08-04T03:58:00.000Z,9.24
2022-08-04T04:00:00.000Z,10.34
2022-08-04T04:02:00.000Z,11.77
2022-08-04T04:04:00.000Z,12.95
2022-08-04T04:06:00.000Z,13.58
2022-08-04T04:08:00.000Z,15.24
2022-08-04T04:10:00.000Z,17.3
2022-08-04T04:12:00.000Z,19.59
2022-08-04T04:14:00.000Z,22.12
2022-08-04T04:16:00.000Z,24.8
2022-08-04T04:18:00.000Z,27.65
2022-08-04T04:20:00.000Z,30.88
2022-08-04T04:22:00.000Z,33.18
2022-08-04T04:24:00.000Z,35.31
2022-08-04T04:26:00.000Z,36.81
2022-08-04T04:28:00.000Z,38.23
2022-08-04T04:30:00.000Z,38.71
2022-08-04T04:32:00.000Z,39.81
2022-08-04T04:34:00.000Z,41.08
2022-08-04T04:36:00.000Z,42.34
2022-08-04T04:38:00.000Z,43.29
2022-08-04T04:40:00.000Z,44.39
2022-08-04T04:42:00.000Z,45.89
2022-08-04T04:44:00.000Z,47.08
2022-08-04T04:46:00.000Z,48.42
2022-08-04T04:48:00.000Z,51.35
2022-08-04T04:50:00.000Z,53.4
2022-08-04T04:52:00.000Z,57.43
2022-08-04T04:54:00.000Z,59.17
2022-08-04T04:56:00.000Z,60.35
2022-08-04T04:58:00.000Z,62.25
2022-08-04T05:00:00.000Z,64.46
2022-08-04T05:02:00.000Z,66.44
2022-08-04T05:04:00.000Z,67.62
2022-08-04T05:06:00.000Z,71.02
2022-08-04T05:08:00.000Z,74.57
2022-08-04T05:10:00.000Z,74.97
2022-08-04T05:12:00.000Z,79.71
2022-08-04T05:14:00.000Z,85.0
2022-08-04T05:16:00.000Z,91.4
2022-08-04T05:18:00.000Z,93.93
2022-08-04T05:20:00.000Z,89.42
2022-08-04T05:22:00.000Z,96.22
2022-08-04T05:24:00.000Z,93.14
2022-08-04T05:26:00.000Z,99.3
2022-08-04T05:28:00.000Z,96.46
2022-08-04T05:30:00.000Z,93.06
2022-08-04T05:32:00.000Z,92.27
2022-08-04T05:34:00.000Z,98.11
2022-08-04T05:36:00.000Z,110.6
2022-08-04T05:38:00.000Z,109.96
2022-08-04T05:40:00.000Z,112.34
2022-08-04T05:42:00.000Z,128.53
2022-08-04T05:44:00.000Z,132.32
2022-08-04T05:46:00.000Z,138.48
2022-08-04T05:48:00.000Z,128.53
2022-08-04T05:50:00.000Z,133.9
2022-08-04T05:52:00.000Z,146.86
2022-08-04T05:54:00.000Z,167.4
2022-08-04T05:56:00.000Z,171.11
2022-08-04T05:58:00.000Z,186.12
2022-08-04T06:00:00.000Z,203.58
2022-08-04T06:02:00.000Z,207.69
2022-08-04T06:04:00.000Z,217.96
2022-08-04T06:06:00.000Z,213.93
2022-08-04T06:08:00.000Z,229.81
2022-08-04T06:10:00.000Z,222.7
2022-08-04T06:12:00.000Z,242.77
2022-08-04T06:14:00.000Z,232.89
2022-08-04T06:16:00.000Z,238.58
2022-08-04T06:18:00.000Z,247.11
2022-08-04T06:20:00.000Z,243.48
2022-08-04T06:22:00.000Z,286.53
2022-08-04T06:24:00.000Z,272.31
2022-08-04T06:26:00.000Z,288.98
2022-08-04T06:28:00.000Z,288.19
2022-08-04T06:30:00.000Z,268.13
2022-08-04T06:32:00.000Z,140.22
2022-08-04T06:34:00.000Z,179.57
2022-08-04T06:36:00.000Z,163.53
2022-08-04T06:38:00.000Z,162.9
2022-08-04T06:40:00.000Z,132.56
2022-08-04T06:42:00.000Z,135.09
2022-08-04T06:44:00.000Z,180.36
2022-08-04T06:46:00.000Z,232.34
2022-08-04T06:48:00.000Z,198.76
2022-08-04T06:50:00.000Z,237.24
2022-08-04T06:52:00.000Z,316.55
2022-08-04T06:54:00.000Z,287.4
2022-08-04T06:56:00.000Z,318.05
2022-08-04T06:58:00.000Z,300.2
2022-08-04T07:00:00.000Z,251.3
2022-08-04T07:02:00.000Z,265.83
2022-08-04T07:04:00.000Z,251.69
2022-08-04T07:06:00.000Z,357.16
2022-08-04T07:08:00.000Z,291.75
2022-08-04T07:10:00.000Z,190.47
2022-08-04T07:12:00.000Z,228.07
2022-08-04T07:14:00.000Z,187.94
2022-08-04T07:16:00.000Z,184.15
2022-08-04T07:18:00.000Z,150.18
2022-08-04T07:20:00.000Z,334.17
2022-08-04T07:22:00.000Z,398.79
2022-08-04T07:24:00.000Z,236.84
2022-08-04T07:26:00.000Z,280.37
2022-08-04T07:28:00.000Z,260.23
2022-08-04T07:30:00.000Z,306.6
2022-08-04T07:32:00.000Z,335.59
2022-08-04T07:34:00.000Z,305.57
2022-08-04T07:36:00.000Z,164.63
2022-08-04T07:38:00.000Z,382.91
2022-08-04T07:40:00.000Z,177.12
2022-08-04T07:42:00.000Z,283.06
2022-08-04T07:44:00.000Z,380.86
2022-08-04T07:46:00.000Z,376.52
2022-08-04T07:48:00.000Z,352.26
2022-08-04T07:50:00.000Z,390.82
2022-08-04T07:52:00.000Z,399.74
2022-08-04T07:54:00.000Z,502.76
2022-08-04T07:56:00.000Z,389.63
2022-08-04T07:58:00.000Z,309.76
2022-08-04T08:00:00.000Z,442.72
2022-08-04T08:02:00.000Z,518.24
2022-08-04T08:04:00.000Z,518.72
2022-08-04T08:06:00.000Z,484.12
2022-08-04T08:08:00.000Z,516.9
2022-08-04T08:10:00.000Z,493.04
2022-08-04T08:12:00.000Z,356.29
2022-08-04T08:14:00.000Z,421.23
2022-08-04T08:16:00.000Z,314.58
2022-08-04T08:18:00.000Z,414.99
2022-08-04T08:20:00.000Z,349.73
2022-08-04T08:22:00.000Z,265.6
2022-08-04T08:24:00.000Z,409.38
2022-08-04T08:26:00.000Z,508.29
2022-08-04T08:28:00.000Z,451.41
2022-08-04T08:30:00.000Z,370.91
2022-08-04T08:32:00.000Z,467.21
2022-08-04T08:34:00.000Z,543.68
2022-08-04T08:36:00.000Z,637.62
2022-08-04T08:38:00.000Z,663.13
2022-08-04T08:40:00.000Z,642.2
2022-08-04T08:42:00.000Z,656.1
2022-08-04T08:44:00.000Z,624.74
2022-08-04T08:46:00.000Z,629.48
2022-08-04T08:48:00.000Z,645.75
2022-08-04T08:50:00.000Z,607.2
2022-08-04T08:52:00.000Z,598.75
2022-08-04T08:54:00.000Z,565.72
2022-08-04T08:56:00.000Z,544.71
2022-08-04T08:58:00.000Z,557.19
2022-08-04T09:00:00.000Z,656.97
2022-08-04T09:02:00.000Z,608.23
2022-08-04T09:04:00.000Z,624.66
2022-08-04T09:06:00.000Z,604.12
2022-08-04T09:08:00.000Z,621.74
2022-08-04T09:10:00.000Z,647.25
2022-08-04T09:12:00.000Z,644.8
2022-08-04T09:14:00.000Z,687.78
2022-08-04T09:16:00.000Z,687.86
2022-08-04T09:18:00.000Z,552.53
2022-08-04T09:20:00.000Z,637.46
2022-08-04T09:22:00.000Z,707.69
2022-08-04T09:24:00.000Z,713.38
2022-08-04T09:26:00.000Z,693.47
2022-08-04T09:28:00.000Z,699.95
2022-08-04T09:30:00.000Z,681.07
2022-08-04T09:32:00.000Z,706.82
2022-08-04T09:34:00.000Z,697.81
2022-08-04T09:36:00.000Z,714.56
2022-08-04T09:38:00.000Z,710.06
2022-08-04T09:40:00.000Z,704.85
2022-08-04T09:42:00.000Z,708.95
2022-08-04T09:44:00.000Z,702.71
2022-08-04T09:46:00.000Z,707.37
2022-08-04T09:48:00.000Z,712.27
2022-08-04T09:50:00.000Z,707.14
2022-08-04T09:52:00.000Z,717.49
2022-08-04T09:54:00.000Z,715.51
2022-08-04T09:56:00.000Z,716.3
2022-08-04T09:58:00.000Z,718.2
2022-08-04T10:00:00.000Z,719.22
2022-08-04T10:02:00.000Z,720.09
2022-08-04T10:04:00.000Z,725.7
2022-08-04T10:06:00.000Z,731.39
2022-08-04T10:08:00.000Z,735.42
2022-08-04T10:10:00.000Z,735.97
2022-08-04T10:12:00.000Z,736.05
2022-08-04T10:14:00.000Z,731.31
2022-08-04T10:16:00.000Z,728.94
2022-08-04T10:18:00.000Z,730.68
2022-08-04T10:20:00.000Z,734.79
2022-08-04T10:22:00.000Z,745.85
2022-08-04T10:24:00.000Z,764.65
2022-08-04T10:26:00.000Z,775.39
2022-08-04T10:28:00.000Z,776.74
2022-08-04T10:30:00.000Z,771.52
2022-08-04T10:32:00.000Z,778.87
2022-08-04T10:34:00.000Z,767.97
2022-08-04T10:36:00.000Z,772.47
2022-08-04T10:38:00.000Z,599.77
2022-08-04T10:40:00.000Z,798.94
2022-08-04T10:42:00.000Z,808.81
2022-08-04T10:44:00.000Z,819.87
2022-08-04T10:46:00.000Z,824.3
2022-08-04T10:48:00.000Z,829.27
2022-08-04T10:50:00.000Z,847.84
2022-08-04T10:52:00.000Z,858.35
2022-08-04T10:54:00.000Z,886.86
2022-08-04T10:56:00.000Z,311.18
2022-08-04T10:58:00.000Z,715.04
2022-08-04T11:00:00.000Z,932.84
2022-08-04T11:02:00.000Z,304.31
2022-08-04T11:04:00.000Z,287.32
2022-08-04T11:06:00.000Z,299.88
2022-08-04T11:08:00.000Z,342.62
2022-08-04T11:10:00.000Z,342.86
2022-08-04T11:12:00.000Z,779.27
2022-08-04T11:14:00.000Z,948.57
2022-08-04T11:16:00.000Z,440.35
2022-08-04T11:18:00.000Z,501.65
2022-08-04T11:20:00.000Z,442.01
2022-08-04T11:22:00.000Z,271.92
2022-08-04T11:24:00.000Z,632.72
2022-08-04T11:26:00.000Z,663.53
2022-08-04T11:28:00.000Z,358.27
2022-08-04T11:30:00.000Z,357.79
2022-08-04T11:32:00.000Z,334.17
2022-08-04T11:34:00.000Z,950.62
2022-08-04T11:36:00.000Z,944.77
2022-08-04T11:38:00.000Z,875.09
2022-08-04T11:40:00.000Z,848.08
2022-08-04T11:42:00.000Z,276.18
2022-08-04T11:44:00.000Z,428.81
2022-08-04T11:46:00.000Z,842.62
2022-08-04T11:48:00.000Z,860.56
2022-08-04T11:50:00.000Z,874.7
2022-08-04T11:52:00.000Z,810.08
2022-08-04T11:54:00.000Z,858.5
2022-08-04T11:56:00.000Z,860.87
2022-08-04T11:58:00.000Z,403.77
2022-08-04T12:00:00.000Z,284.16
2022-08-04T12:02:00.000Z,806.36
2022-08-04T12:04:00.000Z,288.43
2022-08-04T12:06:00.000Z,860.64
2022-08-04T12:08:00.000Z,855.26
2022-08-04T12:10:00.000Z,796.8
2022-08-04T12:12:00.000Z,858.11
2022-08-04T12:14:00.000Z,846.18
2022-08-04T12:16:00.000Z,817.42
2022-08-04T12:18:00.000Z,846.65
2022-08-04T12:20:00.000Z,802.57
2022-08-04T12:22:00.000Z,159.5
2022-08-04T12:24:00.000Z,159.18
2022-08-04T12:26:00.000Z,161.79
2022-08-04T12:28:00.000Z,207.53
2022-08-04T12:30:00.000Z,233.84
2022-08-04T12:32:00.000Z,825.32
2022-08-04T12:34:00.000Z,816.24
2022-08-04T12:36:00.000Z,821.21
2022-08-04T12:38:00.000Z,819.63
2022-08-04T12:40:00.000Z,803.6
2022-08-04T12:42:00.000Z,789.22
2022-08-04T12:44:00.000Z,174.59
2022-08-04T12:46:00.000Z,173.09
2022-08-04T12:48:00.000Z,189.91
2022-08-04T12:50:00.000Z,187.15
2022-08-04T12:52:00.000Z,199.63
2022-08-04T12:54:00.000Z,369.8
2022-08-04T12:56:00.000Z,220.33
2022-08-04T12:58:00.000Z,231.39
2022-08-04T13:00:00.000Z,231.94
2022-08-04T13:02:00.000Z,242.92
2022-08-04T13:04:00.000Z,782.11
2022-08-04T13:06:00.000Z,778.0
2022-08-04T13:08:00.000Z,253.98
2022-08-04T13:10:00.000Z,217.88
2022-08-04T13:12:00.000Z,229.02
2022-08-04T13:14:00.000Z,746.48
2022-08-04T13:16:00.000Z,756.12
2022-08-04T13:18:00.000Z,754.06
2022-08-04T13:20:00.000Z,776.03
2022-08-04T13:22:00.000Z,603.01
2022-08-04T13:24:00.000Z,414.52
2022-08-04T13:26:00.000Z,182.25
2022-08-04T13:28:00.000Z,161.95
2022-08-04T13:30:00.000Z,164.71
2022-08-04T13:32:00.000Z,176.96
2022-08-04T13:34:00.000Z,206.27
2022-08-04T13:36:00.000Z,330.14
2022-08-04T13:38:00.000Z,408.2
2022-08-04T13:40:00.000Z,737.95
2022-08-04T13:42:00.000Z,370.91
2022-08-04T13:44:00.000Z,223.57
2022-08-04T13:46:00.000Z,463.02
2022-08-04T13:48:00.000Z,216.14
2022-08-04T13:50:00.000Z,164.24
2022-08-04T13:52:00.000Z,130.19
2022-08-04T13:54:00.000Z,129.0
2022-08-04T13:56:00.000Z,151.76
2022-08-04T13:58:00.000Z,173.17
2022-08-04T14:00:00.000Z,144.09
2022-08-04T14:02:00.000Z,127.42
2022-08-04T14:04:00.000Z,121.97
2022-08-04T14:06:00.000Z,123.24
2022-08-04T14:08:00.000Z,128.06
2022-08-04T14:10:00.000Z,133.03
2022-08-04T14:12:00.000Z,153.02
2022-08-04T14:14:00.000Z,200.26
2022-08-04T14:16:00.000Z,336.07
2022-08-04T14:18:00.000Z,669.3
2022-08-04T14:20:00.000Z,245.22
2022-08-04T14:22:00.000Z,232.97
2022-08-04T14:24:00.000Z,226.33
2022-08-04T14:26:00.000Z,239.13
2022-08-04T14:28:00.000Z,294.2
2022-08-04T14:30:00.000Z,279.5
2022-08-04T14:32:00.000Z,427.16
2022-08-04T14:34:00.000Z,223.73
2022-08-04T14:36:00.000Z,186.04
2022-08-04T14:38:00.000Z,177.04
2022-08-04T14:40:00.000Z,188.1
2022-08-04T14:42:00.000Z,215.59
2022-08-04T14:44:00.000Z,250.75
2022-08-04T14:46:00.000Z,271.68
2022-08-04T14:48:00.000Z,261.09
2022-08-04T14:50:00.000Z,238.42
2022-08-04T14:52:00.000Z,218.12
2022-08-04T14:54:00.000Z,211.72
2022-08-04T14:56:00.000Z,209.74
2022-08-04T14:58:00.000Z,231.31
2022-08-04T15:00:00.000Z,250.35
2022-08-04T15:02:00.000Z,417.6
2022-08-04T15:04:00.000Z,375.41
2022-08-04T15:06:00.000Z,468.71
2022-08-04T15:08:00.000Z,255.72
2022-08-04T15:10:00.000Z,247.82
2022-08-04T15:12:00.000Z,495.89
2022-08-04T15:14:00.000Z,197.34
2022-08-04T15:16:00.000Z,171.98
2022-08-04T15:18:00.000Z,169.06
2022-08-04T15:20:00.000Z,164.79
2022-08-04T15:22:00.000Z,145.59
2022-08-04T15:24:00.000Z,141.72
2022-08-04T15:26:00.000Z,135.09
2022-08-04T15:28:00.000Z,116.92
2022-08-04T15:30:00.000Z,97.25
2022-08-04T15:32:00.000Z,83.1
2022-08-04T15:34:00.000Z,68.09
2022-08-04T15:36:00.000Z,52.14
2022-08-04T15:38:00.000Z,44.47
2022-08-04T15:40:00.000Z,38.39
2022-08-04T15:42:00.000Z,32.31
2022-08-04T15:44:00.000Z,29.86
2022-08-04T15:46:00.000Z,27.49
2022-08-04T15:48:00.000Z,28.59
2022-08-04T15:50:00.000Z,33.33
2022-08-04T15:52:00.000Z,42.73
2022-08-04T15:54:00.000Z,60.59
2022-08-04T15:56:00.000Z,72.12
2022-08-04T15:58:00.000Z,73.39
2022-08-04T16:00:00.000Z,72.28
2022-08-04T16:02:00.000Z,71.41
2022-08-04T16:04:00.000Z,75.36
2022-08-04T16:06:00.000Z,78.05
2022-08-04T16:08:00.000Z,78.05
2022-08-04T16:10:00.000Z,81.45
2022-08-04T16:12:00.000Z,96.85
2022-08-04T16:14:00.000Z,101.99
2022-08-04T16:16:00.000Z,93.06
2022-08-04T16:18:00.000Z,82.63
2022-08-04T16:20:00.000Z,73.47
2022-08-04T16:22:00.000Z,69.99
2022-08-04T16:24:00.000Z,74.57
2022-08-04T16:26:00.000Z,78.05
2022-08-04T16:28:00.000Z,84.29
2022-08-04T16:30:00.000Z,85.08
2022-08-04T16:32:00.000Z,77.81
2022-08-04T16:34:00.000Z,76.23
2022-08-04T16:36:00.000Z,80.42
2022-08-04T16:38:00.000Z,91.08
2022-08-04T16:40:00.000Z,106.88
2022-08-04T16:42:00.000Z,121.26
2022-08-04T16:44:00.000Z,126.48
2022-08-04T16:46:00.000Z,133.9
2022-08-04T16:48:00.000Z,145.52
2022-08-04T16:50:00.000Z,147.57
2022-08-04T16:52:00.000Z,137.93
2022-08-04T16:54:00.000Z,123.08
2022-08-04T16:56:00.000Z,110.12
2022-08-04T16:58:00.000Z,100.41
2022-08-04T17:00:00.000Z,95.03
2022-08-04T17:02:00.000Z,84.05
2022-08-04T17:04:00.000Z,76.39
2022-08-04T17:06:00.000Z,73.23
2022-08-04T17:08:00.000Z,66.75
2022-08-04T17:10:00.000Z,62.41
2022-08-04T17:12:00.000Z,60.04
2022-08-04T17:14:00.000Z,56.32
2022-08-04T17:16:00.000Z,51.66
2022-08-04T17:18:00.000Z,49.61
2022-08-04T17:20:00.000Z,52.06
2022-08-04T17:22:00.000Z,60.04
2022-08-04T17:24:00.000Z,65.01
2022-08-04T17:26:00.000Z,73.31
2022-08-04T17:28:00.000Z,73.86
2022-08-04T17:30:00.000Z,70.07
2022-08-04T17:32:00.000Z,67.86
2022-08-04T17:34:00.000Z,69.36
2022-08-04T17:36:00.000Z,69.52
2022-08-04T17:38:00.000Z,59.33
2022-08-04T17:40:00.000Z,49.77
2022-08-04T17:42:00.000Z,46.76
2022-08-04T17:44:00.000Z,47.4
2022-08-04T17:46:00.000Z,49.61
2022-08-04T17:48:00.000Z,56.01
2022-08-04T17:50:00.000Z,58.69
2022-08-04T17:52:00.000Z,55.22
2022-08-04T17:54:00.000Z,46.84
2022-08-04T17:56:00.000Z,40.76
2022-08-04T17:58:00.000Z,38.15
2022-08-04T18:00:00.000Z,37.2
2022-08-04T18:02:00.000Z,36.49
2022-08-04T18:04:00.000Z,41.15
2022-08-04T18:06:00.000Z,45.5
2022-08-04T18:08:00.000Z,51.27
2022-08-04T18:10:00.000Z,56.96
2022-08-04T18:12:00.000Z,56.88
2022-08-04T18:14:00.000Z,48.98
2022-08-04T18:16:00.000Z,44.24
2022-08-04T18:20:00.000Z,33.18
2022-08-04T18:22:00.000Z,29.86
2022-08-04T18:24:00.000Z,27.09
2022-08-04T18:26:00.000Z,25.28
2022-08-04T18:28:00.000Z,23.06
2022-08-04T18:30:00.000Z,21.4
2022-08-04T18:32:00.000Z,19.59
2022-08-04T18:34:00.000Z,18.48
2022-08-04T18:36:00.000Z,16.82
2022-08-04T18:38:00.000Z,14.85
2022-08-04T18:40:00.000Z,13.82
2022-08-04T18:42:00.000Z,11.92
2022-08-04T18:44:00.000Z,10.58
2022-08-04T18:46:00.000Z,9.32
2022-08-04T18:48:00.000Z,8.37
2022-08-04T18:50:00.000Z,7.5
2022-08-04T18:52:00.000Z,6.71
2022-08-04T18:54:00.000Z,5.84
2022-08-04T18:56:00.000Z,5.13
2022-08-04T18:58:00.000Z,4.5
2022-08-04T19:00:00.000Z,3.87
2022-08-04T19:02:00.000Z,3.16
2022-08-04T19:04:00.000Z,2.6
2022-08-04T19:06:00.000Z,2.44
2022-08-04T19:08:00.000Z,1.89
2022-08-04T19:10:00.000Z,1.73
2022-08-04T19:12:00.000Z,1.5
2022-08-04T19:14:00.000Z,1.26
2022-08-04T19:16:00.000Z,1.02
2022-08-04T19:18:00.000Z,0.79
2022-08-04T19:20:00.000Z,0.63
2022-08-04T19:22:00.000Z,0.55
2022-08-04T19:24:00.000Z,0.39
2022-08-04T19:26:00.000Z,0.23
2022-08-04T19:28:00.000Z,0.0
2022-08-04T19:30:00.000Z,0.0
2022-08-04T19:32:00.000Z,0.0
2022-08-04T19:34:00.000Z,0.0
2022-08-04T19:36:00.000Z,0.0
2022-08-04T19:38:00.000Z,0.0
2022-08-04T19:40:00.000Z,0.0
2022-08-04T19:42:00.000Z,0.0
2022-08-04T19:44:00.000Z,0.0
2022-08-04T19:46:00.000Z,0.0
2022-08-04T19:50:00.000Z,0.0
2022-08-04T19:52:00.000Z,0.0
2022-08-04T19:54:00.000Z,0.0
2022-08-04T19:56:00.000Z,0.0
2022-08-04T19:58:00.000Z,0.0
2022-08-04T20:00:00.000Z,0.0
2022-08-04T20:02:00.000Z,0.0
2022-08-04T20:04:00.000Z,0.0
2022-08-04T20:06:00.000Z,0.0
2022-08-04T20:08:00.000Z,0.0
2022-08-04T20:10:00.000Z,0.0
2022-08-04T20:12:00.000Z,0.0
2022-08-04T20:14:00.000Z,0.0
2022-08-04T20:16:00.000Z,0.0
2022-08-04T20:18:00.000Z,0.0
2022-08-04T20:20:00.000Z,0.0
2022-08-04T20:22:00.000Z,0.0
2022-08-04T20:24:00.000Z,0.0
2022-08-04T20:26:00.000Z,0.0
2022-08-04T20:28:00.000Z,0.0
2022-08-04T20:30:00.000Z,0.0
2022-08-04T20:32:00.000Z,0.0
2022-08-04T20:34:00.000Z,0.0
2022-08-04T20:36:00.000Z,0.0
2022-08-04T20:38:00.000Z,0.0
2022-08-04T20:40:00.000Z,0.0
2022-08-04T20:42:00.000Z,0.0
2022-08-04T20:44:00.000Z,0.0
2022-08-04T20:46:00.000Z,0.0
2022-08-04T20:48:00.000Z,0.0
2022-08-04T20:50:00.000Z,0.0
2022-08-04T20:52:00.000Z,0.0
2022-08-04T20:54:00.000Z,0.0
2022-08-04T20:56:00.000Z,0.0
2022-08-04T20:58:00.000Z,0.0
2022-08-04T21:00:00.000Z,0.0
2022-08-04T21:02:00.000Z,0.0
2022-08-04T21:04:00.000Z,0.0
2022-08-04T21:06:00.000Z,0.0
2022-08-04T21:08:00.000Z,0.0
2022-08-04T21:10:00.000Z,0.0
2022-08-04T21:12:00.000Z,0.0
2022-08-04T21:14:00.000Z,0.0
2022-08-04T21:16:00.000Z,0.0
2022-08-04T21:18:00.000Z,0.0
2022-08-04T21:20:00.000Z,0.0
2022-08-04T21:22:00.000Z,0.0
2022-08-04T21:24:00.000Z,0.0
2022-08-04T21:26:00.000Z,0.0
2022-08-04T21:28:00.000Z,0.0
2022-08-04T21:30:00.000Z,0.0
2022-08-04T21:32:00.000Z,0.0
2022-08-04T21:34:00.000Z,0.0
2022-08-04T21:36:00.000Z,0.0
2022-08-04T21:38:00.000Z,0.0
2022-08-04T21:40:00.000Z,0.0
2022-08-04T21:42:00.000Z,0.0
2022-08-04T21:44:00.000Z,0.0
2022-08-04T21:46:00.000Z,0.0
2022-08-04T21:48:00.000Z,0.0
2022-08-04T21:50:00.000Z,0.0
2022-08-04T21:52:00.000Z,0.0
2022-08-04T21:54:00.000Z,0.0
2022-08-04T21:56:00.000Z,0.0
2022-08-04T21:58:00.000Z,0.0
2022-08-04T22:00:00.000Z,0.0
2022-08-04T22:02:00.000Z,0.0
2022-08-04T22:04:00.000Z,0.0
2022-08-04T22:06:00.000Z,0.0
2022-08-04T22:08:00.000Z,0.0
2022-08-04T22:10:00.000Z,0.0
2022-08-04T22:12:00.000Z,0.0
2022-08-04T22:14:00.000Z,0.0
2022-08-04T22:16:00.000Z,0.0
2022-08-04T22:18:00.000Z,0.0
2022-08-04T22:20:00.000Z,0.0
2022-08-04T22:22:00.000Z,0.0
2022-08-04T22:24:00.000Z,0.0
2022-08-04T22:26:00.000Z,0.0
2022-08-04T22:28:00.000Z,0.0
2022-08-04T22:30:00.000Z,0.0
2022-08-04T22:32:00.000Z,0.0
2022-08-04T22:34:00.000Z,0.0
2022-08-04T22:36:00.000Z,0.0
2022-08-04T22:38:00.000Z,0.0
2022-08-04T22:40:00.000Z,0.0
2022-08-04T22:42:00.000Z,0.0
2022-08-04T22:44:00.000Z,0.0
2022-08-04T22:46:00.000Z,0.0
2022-08-04T22:48:00.000Z,0.0
2022-08-04T22:50:00.000Z,0.0
2022-08-04T22:52:00.000Z,0.0
2022-08-04T22:54:00.000Z,0.0
2022-08-04T22:56:00.000Z,0.0
2022-08-04T22:58:00.000Z,0.0
2022-08-04T23:00:00.000Z,0.0
2022-08-04T23:02:00.000Z,0.0
2022-08-04T23:04:00.000Z,0.0
2022-08-04T23:06:00.000Z,0.0
2022-08-04T23:08:00.000Z,0.0
2022-08-04T23:10:00.000Z,0.0
2022-08-04T23:12:00.000Z,0.0
2022-08-04T23:14:00.000Z,0.0
2022-08-04T23:16:00.000Z,0.0
2022-08-04T23:18:00.000Z,0.0
2022-08-04T23:20:00.000Z,0.0
2022-08-04T23:22:00.000Z,0.0
2022-08-04T23:24:00.000Z,0.0
2022-08-04T23:26:00.000Z,0.0
2022-08-04T23:28:00.000Z,0.0
2022-08-04T23:30:00.000Z,0.0
2022-08-04T23:32:00.000Z,0.0
2022-08-04T23:34:00.000Z,0.0
2022-08-04T23:36:00.000Z,0.0
2022-08-04T23:38:00.000Z,0.0
2022-08-04T23:40:00.000Z,0.0
2022-08-04T23:42:00.000Z,0.0
2022-08-04T23:44:00.000Z,0.0
2022-08-04T23:46:00.000Z,0.0
2022-08-04T23:48:00.000Z,0.0
2022-08-04T23:50:00.000Z,0.0
2022-08-04T23:52:00.000Z,0.0
2022-08-04T23:54:00.000Z,0.0
2022-08-04T23:56:00.000Z,0.0
2022-08-04T23:58:00.000Z,0.0
